Time;durP1;ratioP1;P1;durP2;ratioP2;P2;SDS_P1;SDS_P2;PMS_P1;PMS_P2;Temp;Humidity;BMP_temperature;BMP_pressure;BME280_temperature;BME280_humidity;BME280_pressure;Samples;Min_cycle;Max_cycle;Signal;HPM_P1;HPM_P2
2022/01/23 00:00:03;;;;;;;13.70;5.60;;;5.40;99.90;;;;;;5060352;28;20044;-53
2022/01/23 00:02:32;;;;;;;11.57;3.75;;;;;;;;;;5061226;28;20033;-47
2022/01/23 00:04:58;;;;;;;10.90;4.30;;;5.30;99.90;;;;;;5062253;28;20051;-52
2022/01/23 00:07:25;;;;;;;9.43;4.55;;;5.30;99.90;;;;;;5063059;28;20049;-53
2022/01/23 00:09:55;;;;;;;15.55;5.55;;;5.40;99.90;;;;;;5059920;28;20132;-49
2022/01/23 00:12:24;;;;;;;12.85;4.90;;;;;;;;;;5060209;28;20040;-51
2022/01/23 00:17:36;;;;;;;13.23;5.35;;;5.40;99.90;;;;;;5061096;28;20482;-48
2022/01/23 00:20:08;;;;;;;14.27;6.70;;;5.20;99.90;;;;;;5060989;28;20032;-48
2022/01/23 00:22:42;;;;;;;17.23;5.55;;;5.20;99.90;;;;;;5061040;28;20059;-53
2022/01/23 00:30:41;;;;;;;12.38;5.03;;;;;;;;;;5060382;28;20044;-49
2022/01/23 00:33:09;;;;;;;13.07;5.47;;;5.30;99.90;;;;;;5061564;28;20460;-51
2022/01/23 00:35:37;;;;;;;17.77;6.57;;;5.30;99.90;;;;;;5061834;28;20036;-51
2022/01/23 00:38:06;;;;;;;17.92;6.55;;;5.30;99.90;;;;;;5060470;28;20111;-53
2022/01/23 00:40:35;;;;;;;15.80;5.65;;;5.30;99.90;;;;;;5060700;28;20349;-53
2022/01/23 00:43:06;;;;;;;12.68;5.75;;;5.40;99.90;;;;;;5059640;28;20033;-54
2022/01/23 00:45:42;;;;;;;19.38;6.03;;;5.20;99.90;;;;;;5060372;28;20377;-51
2022/01/23 00:48:09;;;;;;;17.42;5.97;;;;;;;;;;5061582;28;20059;-51
2022/01/23 00:50:38;;;;;;;14.88;6.10;;;5.20;99.90;;;;;;5060921;28;20859;-52
2022/01/23 00:53:11;;;;;;;15.70;5.75;;;5.20;99.90;;;;;;5060192;28;20360;-51
2022/01/23 00:55:46;;;;;;;11.50;5.28;;;5.20;99.90;;;;;;5061470;28;20051;-50
2022/01/23 00:58:15;;;;;;;20.23;6.45;;;5.10;99.90;;;;;;5044266;28;20746;-54
2022/01/23 01:00:42;;;;;;;13.60;5.75;;;5.30;99.90;;;;;;5060578;28;20040;-53
2022/01/23 01:03:08;;;;;;;13.13;5.18;;;5.30;99.90;;;;;;5060233;28;20124;-48
2022/01/23 01:05:34;;;;;;;15.20;6.18;;;5.20;99.90;;;;;;5060400;28;20574;-52
2022/01/23 01:08:02;;;;;;;16.23;6.15;;;5.30;99.90;;;;;;5061100;28;20520;-50
2022/01/23 01:13:18;;;;;;;12.13;5.93;;;;;;;;;;5027022;28;20577;-50
2022/01/23 01:32:26;;;;;;;15.75;6.80;;;;;;;;;;4978788;28;20605;-50
2022/01/23 01:35:04;;;;;;;13.57;5.68;;;5.40;99.90;;;;;;4979286;28;20046;-52
2022/01/23 01:37:31;;;;;;;14.60;6.45;;;;;;;;;;4980116;28;20133;-52
2022/01/23 01:39:56;;;;;;;13.48;6.43;;;5.30;99.90;;;;;;4979784;28;20522;-51
2022/01/23 01:42:22;;;;;;;13.93;5.93;;;;;;;;;;4979047;28;20062;-51
2022/01/23 01:44:48;;;;;;;15.75;6.28;;;5.30;99.90;;;;;;4978259;28;20050;-52
2022/01/23 01:47:14;;;;;;;17.45;6.22;;;;;;;;;;4977902;28;20098;-51
2022/01/23 01:49:41;;;;;;;15.50;5.75;;;;;;;;;;4985673;28;20049;-51
2022/01/23 01:52:09;;;;;;;16.95;6.50;;;5.20;99.90;;;;;;5015253;28;20100;-52
2022/01/23 01:54:35;;;;;;;12.20;6.05;;;5.20;99.90;;;;;;5016654;28;20111;-52
2022/01/23 02:00:11;;;;;;;10.90;5.40;;;;;;;;;;5060900;28;20045;-53
2022/01/23 02:03:19;;;;;;;21.88;6.35;;;;;;;;;;5058665;28;20044;-52
2022/01/23 02:08:42;;;;;;;12.75;6.25;;;;;;;;;;5060717;28;20048;-51
2022/01/23 02:11:25;;;;;;;18.63;6.70;;;5.20;99.90;;;;;;5059227;28;20044;-51
2022/01/23 02:14:10;;;;;;;14.95;7.32;;;;;;;;;;5057357;28;20040;-52
2022/01/23 02:55:11;;;;;;;15.50;7.13;;;5.40;99.90;;;;;;5063658;28;20064;-51
2022/01/23 02:57:39;;;;;;;18.30;7.38;;;;;;;;;;5063497;28;20516;-49
2022/01/23 03:00:13;;;;;;;22.45;8.13;;;5.10;99.90;;;;;;5064348;28;20047;-51
2022/01/23 03:02:53;;;;;;;18.77;7.85;;;5.20;99.90;;;;;;5061224;28;20044;-52
2022/01/23 03:10:31;;;;;;;;;;;5.40;99.90;;;;;;5063353;28;20420;-54
2022/01/23 03:24:23;;;;;;;19.17;8.40;;;5.20;99.90;;;;;;5038909;28;20107;-49
2022/01/23 03:27:15;;;;;;;17.90;7.40;;;;;;;;;;5038228;28;20048;-50
2022/01/23 03:32:26;;;;;;;15.27;7.25;;;5.30;99.90;;;;;;5036932;28;20482;-49
2022/01/23 03:34:53;;;;;;;16.83;8.40;;;;;;;;;;5038881;28;20048;-51
2022/01/23 03:37:19;;;;;;;16.85;7.93;;;;;;;;;;5039155;28;20112;-51
2022/01/23 03:39:45;;;;;;;17.95;8.25;;;;;;;;;;5039954;28;20102;-53
2022/01/23 03:42:11;;;;;;;18.83;8.10;;;5.20;99.90;;;;;;5038907;28;20041;-53
2022/01/23 03:44:40;;;;;;;18.88;8.20;;;5.30;99.90;;;;;;5038663;28;20091;-51
2022/01/23 03:49:41;;;;;;;17.58;7.88;;;5.20;99.90;;;;;;5039974;28;20076;-52
2022/01/23 03:52:11;;;;;;;16.17;7.90;;;5.10;99.90;;;;;;5039134;28;20052;-49
2022/01/23 03:54:38;;;;;;;15.65;7.15;;;5.20;99.90;;;;;;5038922;28;20044;-53
2022/01/23 03:57:06;;;;;;;18.52;7.28;;;5.20;99.90;;;;;;5051223;28;20048;-51
2022/01/23 03:59:34;;;;;;;14.38;6.53;;;5.10;99.90;;;;;;5063876;28;20033;-52
2022/01/23 04:02:00;;;;;;;15.18;7.03;;;;;;;;;;5062394;28;20040;-51
2022/01/23 04:07:34;;;;;;;14.85;6.82;;;5.10;99.90;;;;;;5061737;28;20055;-53
2022/01/23 04:09:59;;;;;;;14.15;7.88;;;5.30;99.90;;;;;;5020343;28;20124;-53
2022/01/23 04:12:38;;;;;;;18.02;6.90;;;5.10;99.90;;;;;;5018452;28;20041;-53
2022/01/23 04:45:21;;;;;;;22.65;8.20;;;5.00;99.90;;;;;;4901592;29;20059;-49
2022/01/23 05:01:29;;;;;;;15.73;8.13;;;;;;;;;;4919969;29;20086;-51
2022/01/23 05:06:49;;;;;;;14.70;7.38;;;5.00;99.90;;;;;;5060610;28;20139;-52
2022/01/23 05:09:16;;;;;;;15.13;7.57;;;;;;;;;;5059930;28;20120;-50
2022/01/23 05:11:52;;;;;;;15.20;7.13;;;5.10;99.90;;;;;;5060258;28;20044;-51
2022/01/23 05:14:22;;;;;;;18.08;7.05;;;5.10;99.90;;;;;;5059025;28;20032;-52
2022/01/23 05:16:49;;;;;;;18.52;8.13;;;4.80;99.90;;;;;;5059976;28;20123;-48
2022/01/23 05:19:15;;;;;;;17.67;7.38;;;5.10;99.90;;;;;;5059955;28;20045;-51
2022/01/23 05:24:21;;;;;;;11.88;7.13;;;5.00;99.90;;;;;;5058824;28;20076;-53
2022/01/23 05:26:47;;;;;;;13.80;7.00;;;5.00;99.90;;;;;;5058447;28;20032;-52
2022/01/23 05:29:13;;;;;;;14.75;7.43;;;5.20;99.90;;;;;;5062240;28;20059;-52
2022/01/23 05:31:40;;;;;;;17.35;8.68;;;5.10;99.90;;;;;;5062325;28;20120;-51
2022/01/23 05:34:06;;;;;;;22.05;10.02;;;5.00;99.90;;;;;;5060319;28;20182;-51
2022/01/23 05:36:32;;;;;;;19.50;8.38;;;5.00;99.90;;;;;;5060376;28;20394;-53
2022/01/23 05:38:59;;;;;;;21.08;9.63;;;5.10;99.90;;;;;;5060419;28;20131;-51
2022/01/23 05:41:26;;;;;;;22.63;9.20;;;4.90;99.90;;;;;;5061705;28;20036;-48
2022/01/23 05:43:52;;;;;;;22.85;9.60;;;;;;;;;;5060731;28;20041;-52
2022/01/23 05:46:19;;;;;;;22.33;9.43;;;4.90;99.90;;;;;;5060540;28;20047;-50
2022/01/23 05:48:45;;;;;;;25.00;9.38;;;;;;;;;;5060447;28;20052;-53
2022/01/23 05:51:12;;;;;;;24.65;9.82;;;;;;;;;;5061788;28;20158;-52
2022/01/23 05:53:41;;;;;;;33.17;10.57;;;4.90;99.90;;;;;;5059996;28;20075;-53
2022/01/23 05:56:07;;;;;;;18.98;8.55;;;4.90;99.90;;;;;;5060064;28;20051;-53
2022/01/23 05:58:33;;;;;;;20.83;8.77;;;;;;;;;;5060082;28;20037;-52
2022/01/23 06:01:00;;;;;;;20.55;9.18;;;5.00;99.90;;;;;;5060810;28;20049;-51
2022/01/23 06:03:26;;;;;;;28.80;7.50;;;;;;;;;;5058945;28;20041;-52
2022/01/23 06:05:52;;;;;;;24.23;8.88;;;;;;;;;;5059228;28;20059;-52
2022/01/23 06:08:18;;;;;;;15.63;7.80;;;;;;;;;;5059889;28;20037;-52
2022/01/23 06:10:54;;;;;;;16.42;8.45;;;;;;;;;;5059826;28;20032;-51
2022/01/23 06:13:21;;;;;;;15.43;7.63;;;4.90;99.90;;;;;;5059735;28;20057;-53
2022/01/23 06:15:47;;;;;;;21.10;8.90;;;5.00;99.90;;;;;;5061190;28;20044;-53
2022/01/23 06:18:13;;;;;;;14.80;7.82;;;5.00;99.90;;;;;;5063613;28;20040;-52
2022/01/23 06:20:40;;;;;;;17.60;8.05;;;4.80;99.90;;;;;;5062537;28;20041;-51
2022/01/23 06:23:06;;;;;;;17.23;8.35;;;;;;;;;;5063026;28;20090;-53
2022/01/23 06:25:34;;;;;;;28.33;9.95;;;;;;;;;;5063067;28;20070;-52
2022/01/23 06:28:05;;;;;;;29.85;10.88;;;4.70;99.90;;;;;;5063521;28;20041;-52
2022/01/23 06:30:32;;;;;;;20.67;9.15;;;4.90;99.90;;;;;;5063742;28;20135;-52
2022/01/23 06:32:58;;;;;;;19.25;8.73;;;;;;;;;;5063390;28;20489;-51
2022/01/23 06:35:27;;;;;;;16.63;8.23;;;4.90;99.90;;;;;;5062202;28;20044;-52
2022/01/23 06:37:53;;;;;;;22.00;7.28;;;;;;;;;;5063857;28;20079;-54
2022/01/23 06:40:19;;;;;;;18.48;8.15;;;;;;;;;;5063138;28;20485;-54
2022/01/23 06:42:45;;;;;;;13.93;7.10;;;;;;;;;;5063456;28;20063;-54
2022/01/23 06:45:11;;;;;;;19.42;7.85;;;4.80;99.90;;;;;;5061238;28;20045;-53
2022/01/23 06:47:37;;;;;;;20.33;7.63;;;;;;;;;;5062887;28;20733;-51
2022/01/23 06:50:04;;;;;;;14.80;7.25;;;;;;;;;;5062977;28;20088;-50
2022/01/23 06:52:30;;;;;;;20.65;7.22;;;;;;;;;;5064173;28;20048;-51
2022/01/23 06:54:56;;;;;;;19.67;6.53;;;;;;;;;;5063706;28;20041;-52
2022/01/23 06:57:22;;;;;;;13.18;6.03;;;;;;;;;;5063314;28;20102;-53
2022/01/23 06:59:47;;;;;;;11.75;6.07;;;4.80;99.90;;;;;;5064335;28;20160;-53
2022/01/23 07:02:13;;;;;;;17.42;6.47;;;;;;;;;;5064106;28;20326;-50
2022/01/23 07:04:41;;;;;;;14.32;6.60;;;4.80;99.90;;;;;;5063280;28;20397;-52
2022/01/23 07:07:08;;;;;;;15.90;6.80;;;4.90;99.90;;;;;;5063768;28;20131;-52
2022/01/23 07:09:34;;;;;;;18.05;7.28;;;4.80;99.90;;;;;;5063847;28;20527;-52
2022/01/23 07:12:03;;;;;;;15.82;7.45;;;4.90;99.90;;;;;;5066327;28;20041;-49
2022/01/23 07:14:31;;;;;;;12.57;6.80;;;5.00;99.90;;;;;;5068982;28;20044;-53
2022/01/23 07:16:57;;;;;;;19.08;7.90;;;;;;;;;;5067833;28;20551;-54
2022/01/23 07:19:23;;;;;;;15.82;6.95;;;;;;;;;;5067864;28;20049;-49
2022/01/23 07:21:50;;;;;;;15.63;7.63;;;4.80;99.90;;;;;;5068102;28;20049;-52
2022/01/23 07:24:16;;;;;;;18.50;7.45;;;4.80;99.90;;;;;;5067543;28;20459;-50
2022/01/23 07:26:42;;;;;;;18.80;7.60;;;4.80;99.90;;;;;;5066679;28;20048;-48
2022/01/23 07:29:11;;;;;;;16.20;7.50;;;5.00;99.90;;;;;;5067631;28;20118;-53
2022/01/23 07:34:07;;;;;;;17.85;7.70;;;4.70;99.90;;;;;;5067844;28;20597;-53
2022/01/23 07:36:34;;;;;;;17.67;7.85;;;4.90;99.90;;;;;;5067730;28;20036;-52
2022/01/23 07:39:03;;;;;;;20.20;7.95;;;4.90;99.90;;;;;;5067670;28;20101;-51
2022/01/23 07:41:29;;;;;;;22.45;9.13;;;;;;;;;;5067879;28;20055;-52
2022/01/23 07:43:57;;;;;;;24.95;8.75;;;;;;;;;;5067754;28;20143;-53
2022/01/23 07:46:24;;;;;;;27.00;9.20;;;;;;;;;;5067591;28;20683;-49
2022/01/23 07:48:50;;;;;;;27.63;9.60;;;;;;;;;;5067993;28;20060;-52
2022/01/23 07:51:16;;;;;;;23.52;9.13;;;;;;;;;;5067557;28;20048;-51
2022/01/23 07:53:43;;;;;;;31.60;9.50;;;4.90;99.90;;;;;;5066167;28;20033;-49
2022/01/23 07:56:09;;;;;;;30.75;9.70;;;5.00;99.90;;;;;;5062253;28;20043;-52
2022/01/23 07:58:35;;;;;;;26.40;8.45;;;;;;;;;;5061769;28;20036;-54
2022/01/23 08:01:02;;;;;;;30.10;10.73;;;5.00;99.90;;;;;;5061086;28;20036;-52
2022/01/23 08:03:28;;;;;;;25.35;9.13;;;;;;;;;;5061505;28;20094;-50
2022/01/23 08:05:54;;;;;;;28.33;8.75;;;;;;;;;;5062375;28;20072;-51
2022/01/23 08:08:21;;;;;;;31.90;9.90;;;;;;;;;;5060841;28;20051;-49
2022/01/23 08:10:47;;;;;;;25.17;8.75;;;;;;;;;;5061581;28;20037;-51
2022/01/23 08:13:13;;;;;;;36.03;9.93;;;;;;;;;;5061104;28;20052;-54
2022/01/23 08:15:39;;;;;;;33.17;9.63;;;;;;;;;;5063056;28;20497;-51
2022/01/23 08:18:06;;;;;;;26.00;7.88;;;5.10;99.90;;;;;;5062400;28;20048;-50
2022/01/23 08:20:34;;;;;;;20.63;8.25;;;5.20;99.90;;;;;;5062459;28;20082;-53
2022/01/23 08:23:03;;;;;;;21.98;7.50;;;5.10;99.90;;;;;;5062461;28;20397;-52
2022/01/23 08:25:30;;;;;;;18.75;7.47;;;5.10;99.90;;;;;;5063114;28;20043;-53
2022/01/23 08:27:56;;;;;;;17.25;7.03;;;;;;;;;;5062635;28;20527;-52
2022/01/23 08:30:24;;;;;;;18.40;7.35;;;5.10;99.90;;;;;;5060099;28;20123;-53
2022/01/23 08:32:50;;;;;;;14.00;6.47;;;5.30;99.90;;;;;;5061843;28;20067;-52
2022/01/23 08:35:16;;;;;;;14.70;6.57;;;5.10;99.90;;;;;;5060594;28;20451;-52
2022/01/23 08:37:44;;;;;;;14.07;6.07;;;4.40;99.90;;;;;;5060983;28;20128;-51
2022/01/23 08:40:35;;;;;;;15.65;7.10;;;5.10;99.90;;;;;;5091720;28;20056;-51
2022/01/23 08:43:01;;;;;;;11.60;6.18;;;;;;;;;;5062228;28;20047;-53
2022/01/23 08:45:27;;;;;;;14.30;5.70;;;;;;;;;;5061240;28;20040;-52
2022/01/23 08:47:53;;;;;;;11.55;5.70;;;5.40;99.90;;;;;;5061800;28;20500;-53
2022/01/23 08:50:20;;;;;;;14.13;6.50;;;5.20;99.90;;;;;;5060109;28;20056;-53
2022/01/23 08:52:46;;;;;;;14.15;6.75;;;5.30;99.90;;;;;;5059631;28;20193;-54
2022/01/23 08:55:12;;;;;;;12.60;6.65;;;;;;;;;;5062810;28;20154;-53
2022/01/23 08:57:38;;;;;;;15.85;7.03;;;5.40;99.90;;;;;;5059812;28;20523;-50
2022/01/23 09:00:05;;;;;;;14.57;6.78;;;5.50;99.90;;;;;;5061823;28;20041;-52
2022/01/23 09:02:31;;;;;;;14.82;7.00;;;5.40;99.90;;;;;;5058598;28;20032;-50
2022/01/23 09:04:59;;;;;;;12.40;6.40;;;;;;;;;;5060638;28;20040;-51
2022/01/23 09:07:25;;;;;;;13.23;6.35;;;5.70;99.90;;;;;;5061190;28;20448;-51
2022/01/23 09:09:50;;;;;;;16.13;6.65;;;5.70;99.90;;;;;;5061282;28;21054;-53
2022/01/23 09:15:01;;;;;;;14.35;6.80;;;;;;;;;;5060655;28;20048;-53
2022/01/23 09:17:27;;;;;;;13.25;7.40;;;5.80;99.90;;;;;;5060714;28;20165;-50
2022/01/23 09:19:53;;;;;;;15.10;7.32;;;5.80;99.90;;;;;;5061608;28;20056;-53
2022/01/23 09:22:18;;;;;;;11.85;6.70;;;5.70;99.90;;;;;;5059881;28;20325;-52
2022/01/23 09:24:44;;;;;;;12.25;6.53;;;5.70;99.90;;;;;;5062391;28;20029;-48
2022/01/23 09:27:18;;;;;;;15.57;7.28;;;;;;;;;;5059643;28;20133;-51
2022/01/23 09:29:47;;;;;;;13.80;6.88;;;;;;;;;;5059102;28;20064;-52
2022/01/23 09:32:16;;;;;;;10.82;6.28;;;5.80;99.90;;;;;;5060599;28;20083;-50
2022/01/23 09:34:43;;;;;;;12.43;6.50;;;5.80;99.90;;;;;;5060523;28;20402;-49
2022/01/23 09:37:12;;;;;;;11.52;5.75;;;5.90;99.90;;;;;;5061900;28;20041;-52
2022/01/23 09:39:40;;;;;;;10.10;6.00;;;5.90;99.90;;;;;;5058396;28;20089;-51
2022/01/23 09:42:33;;;;;;;9.13;5.55;;;5.90;99.90;;;;;;5059631;28;20037;-48
2022/01/23 09:45:04;;;;;;;11.57;6.00;;;5.90;99.90;;;;;;5056577;28;20443;-52
2022/01/23 09:47:30;;;;;;;9.77;5.63;;;6.00;99.90;;;;;;5061470;28;20110;-52
2022/01/23 09:50:00;;;;;;;10.32;5.72;;;6.00;99.90;;;;;;5060547;28;20626;-50
2022/01/23 09:52:29;;;;;;;9.02;5.80;;;6.10;99.90;;;;;;5064549;28;20040;-54
2022/01/23 09:54:59;;;;;;;10.38;5.80;;;6.00;99.90;;;;;;5066524;28;20064;-52
2022/01/23 09:57:29;;;;;;;9.43;5.55;;;6.00;99.90;;;;;;5064442;28;20446;-54
2022/01/23 09:59:56;;;;;;;9.50;4.95;;;6.00;99.90;;;;;;5063235;28;20042;-53
2022/01/23 10:02:25;;;;;;;9.60;4.97;;;6.10;99.90;;;;;;5062240;28;20094;-50
2022/01/23 10:04:51;;;;;;;9.50;5.10;;;6.00;99.90;;;;;;5061710;28;20048;-51
2022/01/23 10:07:18;;;;;;;8.25;4.65;;;6.10;99.90;;;;;;5062916;28;20165;-54
2022/01/23 10:09:46;;;;;;;8.35;4.75;;;6.20;99.90;;;;;;5063196;28;20037;-52
2022/01/23 10:12:12;;;;;;;6.65;4.25;;;6.20;99.90;;;;;;5062799;28;20119;-51
2022/01/23 10:14:40;;;;;;;7.47;4.40;;;6.30;99.90;;;;;;5063721;28;20608;-52
2022/01/23 10:17:07;;;;;;;6.95;4.47;;;6.30;99.90;;;;;;5063826;28;20512;-49
2022/01/23 10:19:34;;;;;;;8.02;4.70;;;6.30;99.90;;;;;;5061842;28;20527;-53
2022/01/23 10:22:05;;;;;;;6.70;4.20;;;6.40;99.90;;;;;;5064161;28;20079;-53
2022/01/23 10:24:30;;;;;;;6.97;4.32;;;6.30;99.90;;;;;;5064131;28;20155;-54
2022/01/23 10:26:58;;;;;;;8.88;4.75;;;6.40;99.90;;;;;;5064120;28;20485;-52
2022/01/23 10:29:29;;;;;;;6.63;4.35;;;6.50;99.90;;;;;;5062634;28;20067;-52
2022/01/23 10:32:06;;;;;;;7.85;4.85;;;6.50;99.90;;;;;;5063539;28;20043;-52
2022/01/23 10:35:01;;;;;;;7.00;4.15;;;6.30;99.90;;;;;;5063849;28;20513;-53
2022/01/23 10:37:29;;;;;;;6.47;4.05;;;6.40;99.90;;;;;;5061559;28;20051;-51
2022/01/23 10:39:56;;;;;;;6.85;4.20;;;6.60;99.90;;;;;;5062998;28;20041;-53
2022/01/23 10:51:16;;;;;;;8.05;4.13;;;6.40;99.90;;;;;;4939766;28;20061;-53
2022/01/23 10:54:00;;;;;;;;;;;6.60;99.90;;;;;;4926940;28;20528;-53
2022/01/23 10:56:27;;;;;;;6.18;4.20;;;6.50;99.90;;;;;;4931245;29;20025;-53
2022/01/23 10:59:05;;;;;;;8.43;4.68;;;6.60;99.90;;;;;;4938196;28;20043;-53
2022/01/23 11:01:31;;;;;;;8.32;4.43;;;;;;;;;;4933352;28;20047;-52
2022/01/23 11:04:04;;;;;;;6.85;4.72;;;6.50;99.90;;;;;;4926953;29;20110;-54
2022/01/23 11:06:30;;;;;;;7.22;3.75;;;6.70;99.90;;;;;;4930889;29;20066;-55
2022/01/23 11:09:09;;;;;;;8.18;3.80;;;6.60;99.90;;;;;;4940346;28;20579;-53
2022/01/23 11:11:47;;;;;;;6.72;3.33;;;6.80;99.90;;;;;;4938197;28;20105;-54
2022/01/23 11:17:23;;;;;;;8.13;3.90;;;6.90;99.90;;;;;;4935475;28;20091;-51
2022/01/23 11:19:59;;;;;;;8.57;3.67;;;6.90;99.90;;;;;;4933113;28;20098;-53
2022/01/23 11:22:34;;;;;;;5.90;3.35;;;6.80;99.90;;;;;;4944991;28;20074;-53
2022/01/23 11:25:04;;;;;;;6.28;3.50;;;6.70;99.90;;;;;;4962398;28;20043;-55
2022/01/23 11:27:37;;;;;;;9.25;3.65;;;6.80;99.90;;;;;;4983884;28;20580;-53
2022/01/23 11:30:12;;;;;;;5.65;3.40;;;6.70;99.90;;;;;;5062744;28;20033;-51
2022/01/23 11:32:40;;;;;;;5.50;3.42;;;6.80;99.90;;;;;;5062580;28;20046;-52
2022/01/23 11:35:16;;;;;;;5.10;3.17;;;6.80;99.90;;;;;;5062307;28;20056;-52
2022/01/23 11:37:49;;;;;;;6.53;3.40;;;6.80;99.90;;;;;;5063054;28;20036;-53
2022/01/23 11:53:57;;;;;;;7.18;3.92;;;6.90;99.90;;;;;;5061528;28;20436;-54
2022/01/23 11:56:26;;;;;;;7.00;3.13;;;6.60;99.90;;;;;;5062143;28;20488;-53
2022/01/23 11:59:25;;;;;;;5.80;3.15;;;6.80;99.90;;;;;;5060491;28;20131;-53
2022/01/23 12:02:28;;;;;;;5.43;3.00;;;6.90;99.90;;;;;;5061633;28;20537;-54
2022/01/23 12:05:19;;;;;;;6.25;3.03;;;6.80;99.90;;;;;;5011118;28;20042;-53
2022/01/23 12:08:17;;;;;;;5.17;2.80;;;6.80;99.90;;;;;;5019390;28;20524;-53
2022/01/23 12:16:32;;;;;;;4.93;2.58;;;7.00;99.90;;;;;;5009950;28;20129;-50
2022/01/23 12:19:18;;;;;;;4.55;2.63;;;7.00;99.90;;;;;;5010230;28;20038;-51
2022/01/23 12:21:45;;;;;;;4.93;2.42;;;6.90;99.90;;;;;;5008495;28;20053;-52
2022/01/23 12:24:14;;;;;;;4.88;3.10;;;6.90;99.90;;;;;;5012344;28;20153;-54
2022/01/23 12:26:43;;;;;;;4.75;2.88;;;6.80;99.90;;;;;;5006915;28;20622;-50
2022/01/23 12:29:13;;;;;;;7.00;3.03;;;6.90;99.90;;;;;;5014680;28;20088;-52
2022/01/23 12:31:40;;;;;;;5.47;3.17;;;7.00;99.90;;;;;;5010739;28;20443;-52
2022/01/23 12:34:09;;;;;;;5.95;3.28;;;7.50;99.90;;;;;;5005882;28;20711;-54
2022/01/23 12:36:37;;;;;;;5.60;3.10;;;7.00;99.90;;;;;;5006242;28;20136;-53
2022/01/23 12:39:09;;;;;;;8.13;3.20;;;7.00;99.90;;;;;;5005128;28;20029;-54
2022/01/23 12:41:38;;;;;;;5.82;3.25;;;7.20;99.90;;;;;;5030661;28;20083;-54
2022/01/23 12:44:24;;;;;;;5.88;3.35;;;6.90;99.90;;;;;;5060272;28;20032;-49
2022/01/23 12:46:55;;;;;;;6.80;3.53;;;6.90;99.90;;;;;;5059463;28;20139;-53
2022/01/23 12:49:26;;;;;;;7.78;4.07;;;7.70;99.90;;;;;;5060493;28;20076;-54
2022/01/23 12:52:19;;;;;;;8.23;3.38;;;6.90;99.90;;;;;;5059105;28;20071;-52
2022/01/23 12:54:47;;;;;;;9.35;3.45;;;7.00;99.90;;;;;;4998478;28;20062;-54
2022/01/23 12:57:16;;;;;;;8.02;4.28;;;7.00;99.90;;;;;;5003047;28;20056;-52
2022/01/23 12:59:49;;;;;;;7.45;4.00;;;6.90;99.90;;;;;;5001192;28;21274;-52
2022/01/23 13:02:18;;;;;;;6.13;3.95;;;6.90;99.90;;;;;;5002404;28;20041;-52
2022/01/23 13:04:47;;;;;;;9.55;4.22;;;8.10;99.90;;;;;;4999798;28;20046;-50
2022/01/23 13:07:26;;;;;;;8.32;4.35;;;6.90;99.90;;;;;;5002045;28;20097;-53
2022/01/23 13:10:01;;;;;;;7.88;4.03;;;6.90;99.90;;;;;;5000713;28;20046;-55
2022/01/23 13:34:32;;;;;;;7.45;4.28;;;7.00;99.90;;;;;;4997622;28;20093;-53
2022/01/23 13:37:13;;;;;;;11.15;4.53;;;6.90;99.90;;;;;;4998584;28;20092;-52
2022/01/23 13:39:58;;;;;;;7.75;4.43;;;6.70;99.90;;;;;;4997574;28;21652;-50
2022/01/23 14:02:08;;;;;;;8.38;4.45;;;6.80;99.90;;;;;;4997078;28;20065;-50
2022/01/23 14:04:48;;;;;;;7.10;3.55;;;7.00;99.90;;;;;;4996771;28;20602;-53
2022/01/23 14:07:26;;;;;;;9.15;3.95;;;6.80;99.90;;;;;;4997795;28;20539;-50
2022/01/23 14:09:54;;;;;;;6.88;4.30;;;6.80;99.90;;;;;;4995755;28;22037;-53
2022/01/23 14:12:21;;;;;;;10.70;3.70;;;6.80;99.90;;;;;;4997752;28;20056;-51
2022/01/23 14:14:49;;;;;;;6.60;3.97;;;6.70;99.90;;;;;;4996775;28;20065;-53
2022/01/23 14:17:15;;;;;;;8.82;3.95;;;6.70;99.90;;;;;;4997381;28;20065;-53
2022/01/23 14:19:54;;;;;;;7.82;3.65;;;6.80;99.90;;;;;;4996530;28;20050;-54
2022/01/23 14:22:27;;;;;;;10.02;4.13;;;6.70;99.90;;;;;;4996431;28;20096;-53
2022/01/23 14:25:04;;;;;;;15.02;5.25;;;6.70;99.90;;;;;;4997477;28;20133;-52
2022/01/23 14:27:30;;;;;;;7.88;4.07;;;6.80;99.90;;;;;;4996587;28;20106;-52
2022/01/23 14:29:59;;;;;;;7.40;3.78;;;6.70;99.90;;;;;;4996961;28;20046;-51
2022/01/23 14:32:41;;;;;;;8.68;4.53;;;6.60;99.90;;;;;;4998772;28;20156;-52
2022/01/23 14:35:11;;;;;;;10.18;4.70;;;6.70;99.90;;;;;;5059613;28;20058;-54
2022/01/23 14:37:39;;;;;;;8.30;4.60;;;5.90;99.90;;;;;;5062615;28;20459;-54
2022/01/23 14:40:27;;;;;;;7.97;4.68;;;6.60;99.90;;;;;;5061973;28;20049;-50
2022/01/23 14:42:58;;;;;;;9.52;4.65;;;6.50;99.90;;;;;;5061860;28;20043;-52
2022/01/23 14:45:25;;;;;;;11.35;5.03;;;6.40;99.90;;;;;;5062346;28;20086;-52
2022/01/23 14:47:51;;;;;;;9.15;4.93;;;6.60;99.90;;;;;;5061316;28;20227;-53
2022/01/23 14:50:19;;;;;;;11.65;5.13;;;6.50;99.90;;;;;;5062230;28;20041;-54
2022/01/23 14:52:47;;;;;;;9.20;4.93;;;6.50;99.90;;;;;;5060754;28;20037;-53
2022/01/23 14:55:12;;;;;;;11.38;5.60;;;6.50;99.90;;;;;;5062813;28;20673;-53
2022/01/23 14:57:40;;;;;;;9.55;5.25;;;6.40;99.90;;;;;;5063110;28;20047;-53
2022/01/23 15:00:09;;;;;;;8.50;4.90;;;6.40;99.90;;;;;;5062624;28;20044;-53
2022/01/23 15:02:36;;;;;;;9.50;4.85;;;6.60;99.90;;;;;;5064075;28;20086;-51
2022/01/23 15:05:03;;;;;;;10.80;5.25;;;6.50;99.90;;;;;;5061509;28;20052;-55
2022/01/23 15:07:37;;;;;;;9.45;5.13;;;6.40;99.90;;;;;;5062772;28;20127;-52
2022/01/23 15:10:05;;;;;;;9.43;5.07;;;6.40;99.90;;;;;;5062781;28;20036;-54
2022/01/23 15:12:35;;;;;;;8.77;4.90;;;6.40;99.90;;;;;;5062875;28;20133;-53
2022/01/23 15:15:01;;;;;;;10.82;4.30;;;6.40;99.90;;;;;;5063289;28;20052;-54
2022/01/23 15:17:27;;;;;;;9.10;4.82;;;6.40;99.90;;;;;;5062688;28;20632;-53
2022/01/23 15:19:54;;;;;;;12.52;5.60;;;7.70;99.90;;;;;;5063765;28;20090;-54
2022/01/23 15:22:22;;;;;;;13.07;4.70;;;6.50;99.90;;;;;;5062461;28;20105;-54
2022/01/23 15:24:48;;;;;;;9.50;5.38;;;6.10;99.90;;;;;;5062796;28;20041;-51
2022/01/23 15:27:14;;;;;;;11.82;5.00;;;6.30;99.90;;;;;;5064498;28;20535;-53
2022/01/23 15:29:40;;;;;;;10.85;5.10;;;6.30;99.90;;;;;;5062023;28;20505;-51
2022/01/23 15:32:07;;;;;;;11.63;5.65;;;6.30;99.90;;;;;;5062179;28;20058;-52
2022/01/23 15:34:35;;;;;;;9.00;5.95;;;6.30;99.90;;;;;;5063086;28;20045;-54
2022/01/23 15:37:02;;;;;;;11.80;5.90;;;6.30;99.90;;;;;;5060847;28;20105;-54
2022/01/23 15:39:29;;;;;;;10.88;5.82;;;6.20;99.90;;;;;;5061829;28;20518;-54
2022/01/23 15:41:56;;;;;;;14.75;5.15;;;6.30;99.90;;;;;;5061650;28;20049;-53
2022/01/23 15:44:22;;;;;;;9.00;4.55;;;;;;;;;;5062100;28;20132;-54
2022/01/23 15:46:50;;;;;;;8.63;4.95;;;6.20;99.90;;;;;;5062371;28;20048;-53
2022/01/23 15:49:17;;;;;;;15.35;5.57;;;6.30;99.90;;;;;;5060713;28;20039;-55
2022/01/23 15:51:47;;;;;;;10.55;5.07;;;6.30;99.90;;;;;;5061359;28;20041;-53
2022/01/23 15:54:15;;;;;;;12.02;5.43;;;6.20;99.90;;;;;;5061617;28;20174;-51
2022/01/23 15:56:41;;;;;;;11.93;6.07;;;6.10;99.90;;;;;;5062782;28;20067;-52
2022/01/23 15:59:07;;;;;;;10.90;5.68;;;6.20;99.90;;;;;;5062182;28;20100;-52
2022/01/23 16:01:35;;;;;;;12.02;5.97;;;6.20;99.90;;;;;;5061831;28;20064;-51
2022/01/23 16:04:01;;;;;;;9.85;5.55;;;6.10;99.90;;;;;;5061519;28;20059;-51
2022/01/23 16:06:27;;;;;;;11.38;5.72;;;6.00;99.90;;;;;;5060839;28;20032;-51
2022/01/23 16:08:53;;;;;;;7.72;5.20;;;6.10;99.90;;;;;;5061537;28;20600;-53
2022/01/23 16:11:19;;;;;;;11.60;5.15;;;6.00;99.90;;;;;;5061931;28;20040;-52
2022/01/23 16:13:47;;;;;;;13.23;6.35;;;;;;;;;;5060064;28;20464;-50
2022/01/23 16:16:13;;;;;;;10.77;5.43;;;6.10;99.90;;;;;;5061596;28;20060;-52
2022/01/23 16:18:38;;;;;;;10.30;5.18;;;6.10;99.90;;;;;;5060063;28;20059;-50
2022/01/23 16:21:07;;;;;;;9.90;5.53;;;6.00;99.90;;;;;;5062266;28;20506;-52
2022/01/23 16:23:33;;;;;;;8.55;5.30;;;;;;;;;;5062978;28;20032;-53
2022/01/23 16:25:59;;;;;;;8.90;5.07;;;6.00;99.90;;;;;;5063081;28;20409;-50
2022/01/23 16:28:24;;;;;;;10.63;5.60;;;6.00;99.90;;;;;;5062685;28;20087;-49
2022/01/23 16:30:53;;;;;;;9.02;5.03;;;5.90;99.90;;;;;;5061314;28;20059;-49
2022/01/23 16:33:20;;;;;;;9.13;4.80;;;6.00;99.90;;;;;;5060349;28;20039;-53
2022/01/23 16:35:46;;;;;;;13.02;5.50;;;6.00;99.90;;;;;;5059530;28;20098;-51
2022/01/23 16:38:14;;;;;;;10.90;4.50;;;6.00;99.90;;;;;;5061576;28;20052;-53
2022/01/23 16:40:41;;;;;;;8.88;4.78;;;5.80;99.90;;;;;;5061117;28;20760;-52
2022/01/23 16:43:08;;;;;;;8.65;4.95;;;5.90;99.90;;;;;;5060449;28;20047;-50
2022/01/23 16:45:35;;;;;;;12.82;5.20;;;5.90;99.90;;;;;;5061143;28;20079;-51
2022/01/23 16:48:02;;;;;;;9.55;5.10;;;5.90;99.90;;;;;;5061233;28;20036;-53
2022/01/23 16:50:28;;;;;;;10.25;5.28;;;6.00;99.90;;;;;;5060853;28;20029;-52
2022/01/23 16:52:56;;;;;;;8.80;4.88;;;6.00;99.90;;;;;;5059661;28;20456;-52
2022/01/23 16:55:22;;;;;;;12.25;5.00;;;6.00;99.90;;;;;;5060215;28;20032;-52
2022/01/23 16:57:47;;;;;;;13.02;5.60;;;5.90;99.90;;;;;;5061740;28;20455;-53
2022/01/23 17:00:14;;;;;;;8.55;4.35;;;5.80;99.90;;;;;;5060194;28;20136;-52
2022/01/23 17:02:40;;;;;;;9.53;5.30;;;;;;;;;;5061102;28;20048;-53
2022/01/23 17:05:06;;;;;;;7.22;4.40;;;5.90;99.90;;;;;;5062183;28;20474;-52